Time;durP1;ratioP1;P1;durP2;ratioP2;P2;SDS_P1;SDS_P2;PMS_P1;PMS_P2;Temp;Humidity;BMP_temperature;BMP_pressure;BME280_temperature;BME280_humidity;BME280_pressure;Samples;Min_cycle;Max_cycle;Signal;HPM_P1;HPM_P2
2022/10/04 00:02:14;;;;;;;;;;;12.60;99.90;;;;;;4968496;28;19925;-75
2022/10/04 00:04:56;;;;;;;;;;;12.60;99.90;;;;;;4983860;28;19926;-75
2022/10/04 00:07:24;;;;;;;;;;;12.60;99.90;;;;;;4985561;28;19926;-75
2022/10/04 00:10:05;;;;;;;;;;;12.60;99.90;;;;;;4985623;28;20547;-74
2022/10/04 00:12:34;;;;;;;;;;;12.60;99.90;;;;;;4985339;28;19973;-74
2022/10/04 00:15:02;;;;;;;;;;;12.60;99.90;;;;;;4986146;28;20387;-75
2022/10/04 00:17:30;;;;;;;;;;;12.60;99.90;;;;;;4986406;28;19930;-74
2022/10/04 00:19:56;;;;;;;;;;;12.60;99.90;;;;;;4967591;28;19930;-74
2022/10/04 00:22:25;;;;;;;;;;;12.60;99.90;;;;;;4985474;28;19932;-74
2022/10/04 00:25:06;;;;;;;;;;;12.60;99.90;;;;;;4992946;28;19945;-74
2022/10/04 00:27:33;;;;;;;;;;;12.60;99.90;;;;;;4970848;28;19937;-74
2022/10/04 00:30:01;;;;;;;;;;;12.50;99.90;;;;;;4968427;28;19930;-74
2022/10/04 00:32:27;;;;;;;;;;;12.60;99.90;;;;;;4971833;28;20012;-75
2022/10/04 00:34:53;;;;;;;;;;;12.60;99.90;;;;;;4988039;28;20020;-74
2022/10/04 00:37:19;;;;;;;;;;;12.50;99.90;;;;;;4988711;28;20044;-74
2022/10/04 00:39:46;;;;;;;;;;;12.60;99.90;;;;;;4971453;28;20434;-74
2022/10/04 00:42:17;;;;;;;;;;;12.60;99.90;;;;;;4970999;28;19922;-74
2022/10/04 00:44:49;;;;;;;;;;;12.60;99.90;;;;;;4988782;28;20443;-74
2022/10/04 00:47:21;;;;;;;;;;;12.60;99.90;;;;;;4988789;28;19926;-74
2022/10/04 00:49:49;;;;;;;;;;;12.60;99.90;;;;;;4987663;28;20016;-74
2022/10/04 00:52:19;;;;;;;;;;;12.60;99.90;;;;;;4988556;28;19980;-74
2022/10/04 00:54:52;;;;;;;;;;;12.60;99.90;;;;;;4988459;28;19926;-74
2022/10/04 00:57:30;;;;;;;;;;;12.60;99.90;;;;;;4988097;28;20377;-74
2022/10/04 01:00:05;;;;;;;;;;;12.60;99.90;;;;;;4971981;28;19926;-74
2022/10/04 01:02:34;;;;;;;;;;;12.60;99.90;;;;;;4987033;28;20021;-76
2022/10/04 01:05:03;;;;;;;;;;;12.60;99.90;;;;;;4970866;28;20008;-76
2022/10/04 01:07:37;;;;;;;;;;;12.60;99.90;;;;;;5003964;28;19968;-75
2022/10/04 01:10:08;;;;;;;;;;;12.60;99.90;;;;;;5062588;23;19953;-74
2022/10/04 01:12:53;;;;;;;;;;;12.60;99.90;;;;;;4987540;28;20040;-73
2022/10/04 01:15:22;;;;;;;;;;;12.60;99.90;;;;;;4987265;28;20265;-74
2022/10/04 01:18:07;;;;;;;;;;;12.50;99.90;;;;;;4986810;28;19929;-74
2022/10/04 01:20:35;;;;;;;;;;;12.50;99.90;;;;;;4987110;28;20215;-74
2022/10/04 01:23:01;;;;;;;;;;;12.50;99.90;;;;;;4988130;28;19930;-75
2022/10/04 01:25:41;;;;;;;;;;;12.50;99.90;;;;;;4988551;28;19926;-74
2022/10/04 01:28:07;;;;;;;;;;;12.40;99.90;;;;;;4986422;28;19949;-74
2022/10/04 01:30:32;;;;;;;;;;;12.40;99.90;;;;;;4987900;28;20299;-74
2022/10/04 01:32:58;;;;;;;;;;;12.40;99.90;;;;;;4987517;28;20347;-74
2022/10/04 01:35:23;;;;;;;;;;;12.30;99.90;;;;;;4986563;28;19953;-74
2022/10/04 01:37:49;;;;;;;;;;;12.30;99.90;;;;;;4969812;28;19931;-74
2022/10/04 01:40:15;;;;;;;;;;;12.30;99.90;;;;;;4987761;28;19926;-74
2022/10/04 01:42:40;;;;;;;;;;;12.30;99.90;;;;;;4985439;28;19921;-74
2022/10/04 01:45:09;;;;;;;;;;;12.30;99.90;;;;;;4988176;28;20339;-74
2022/10/04 01:47:35;;;;;;;;;;;12.20;99.90;;;;;;4985617;28;19926;-74
2022/10/04 01:50:04;;;;;;;;;;;12.20;99.90;;;;;;4986291;28;20020;-76
2022/10/04 01:53:02;;;;;;;;;;;12.20;99.90;;;;;;4987539;28;20375;-76
2022/10/04 01:55:29;;;;;;;;;;;12.20;99.90;;;;;;4975752;28;20368;-74
2022/10/04 01:58:00;;;;;;;;;;;12.20;99.90;;;;;;4986318;28;19933;-75
2022/10/04 02:00:25;;;;;;;;;;;12.10;99.90;;;;;;4987871;28;19926;-74
2022/10/04 02:02:56;;;;;;;;;;;12.10;99.90;;;;;;4986372;28;19932;-74
2022/10/04 02:05:28;;;;;;;;;;;12.10;99.90;;;;;;4986823;28;19930;-74
2022/10/04 02:07:54;;;;;;;;;;;12.10;99.90;;;;;;4986201;28;19933;-75
2022/10/04 02:10:21;;;;;;;;;;;12.00;99.90;;;;;;5002497;28;20032;-74
2022/10/04 02:12:48;;;;;;;;;;;12.00;99.90;;;;;;4987063;28;20438;-74
2022/10/04 02:15:14;;;;;;;;;;;12.00;99.90;;;;;;4986329;28;19929;-74
2022/10/04 02:17:41;;;;;;;;;;;12.00;99.90;;;;;;4985591;28;20431;-75
2022/10/04 02:20:09;;;;;;;;;;;11.90;99.90;;;;;;4969876;28;19933;-74
2022/10/04 02:22:35;;;;;;;;;;;11.90;99.90;;;;;;4986927;28;19933;-74
2022/10/04 02:25:01;;;;;;;;;;;11.90;99.90;;;;;;4977128;28;19926;-75
2022/10/04 02:27:30;;;;;;;;;;;11.80;99.90;;;;;;4987331;28;19925;-74
2022/10/04 02:29:59;;;;;;;;;;;11.80;99.90;;;;;;4985822;28;20012;-74
2022/10/04 02:35:08;;;;;;;;;;;11.70;99.90;;;;;;4985473;28;19933;-74
2022/10/04 02:37:36;;;;;;;;;;;11.70;99.90;;;;;;4986325;28;19926;-75
2022/10/04 02:40:06;;;;;;;;;;;11.70;99.90;;;;;;4986938;28;20028;-74
2022/10/04 02:42:47;;;;;;;;;;;11.60;99.90;;;;;;4986266;28;19929;-74
2022/10/04 02:45:18;;;;;;;;;;;11.60;99.90;;;;;;4986343;28;20016;-74
2022/10/04 02:47:46;;;;;;;;;;;11.50;99.90;;;;;;4966288;28;19934;-74
2022/10/04 02:50:20;;;;;;;;;;;11.50;99.90;;;;;;4965926;28;19937;-74
2022/10/04 02:52:47;;;;;;;;;;;11.40;99.90;;;;;;4949670;28;19934;-74
2022/10/04 02:55:21;;;;;;;;;;;11.40;99.90;;;;;;4971146;28;19968;-74
2022/10/04 02:57:48;;;;;;;;;;;11.30;99.90;;;;;;4984696;28;19925;-74
2022/10/04 03:00:14;;;;;;;;;;;11.30;99.90;;;;;;4986319;28;20442;-74
2022/10/04 03:02:40;;;;;;;;;;;11.30;99.90;;;;;;4985158;28;19925;-74
2022/10/04 03:05:08;;;;;;;;;;;11.20;99.90;;;;;;4984980;28;19926;-74
2022/10/04 03:07:34;;;;;;;;;;;11.20;99.90;;;;;;4984482;28;20033;-74
2022/10/04 03:10:00;;;;;;;;;;;11.10;99.90;;;;;;4986079;28;19925;-76
2022/10/04 03:12:26;;;;;;;;;;;11.10;99.90;;;;;;4986537;28;19929;-74
2022/10/04 03:14:52;;;;;;;;;;;11.00;99.90;;;;;;4984461;28;19936;-74
2022/10/04 03:17:18;;;;;;;;;;;11.10;99.90;;;;;;4984006;28;19925;-73
2022/10/04 03:19:46;;;;;;;;;;;11.00;99.90;;;;;;4985671;28;19937;-74
2022/10/04 03:22:12;;;;;;;;;;;11.00;99.90;;;;;;4986219;28;19930;-73
2022/10/04 03:24:41;;;;;;;;;;;10.90;99.90;;;;;;4979630;28;19981;-74
2022/10/04 03:27:08;;;;;;;;;;;10.90;99.90;;;;;;4965499;28;19926;-74
2022/10/04 03:29:34;;;;;;;;;;;10.90;99.90;;;;;;4967781;28;19926;-74
2022/10/04 03:32:00;;;;;;;;;;;10.90;99.90;;;;;;5000852;28;20037;-75
2022/10/04 03:34:34;;;;;;;;;;;10.90;99.90;;;;;;4985696;28;19969;-74
2022/10/04 03:36:59;;;;;;;;;;;10.90;99.90;;;;;;4985607;28;19977;-75
2022/10/04 03:39:33;;;;;;;;;;;10.90;99.90;;;;;;4984714;28;19984;-74
2022/10/04 03:42:03;;;;;;;;;;;10.90;99.90;;;;;;4968797;28;19925;-74
2022/10/04 03:44:30;;;;;;;;;;;10.90;99.90;;;;;;4985970;28;19956;-74
2022/10/04 03:46:55;;;;;;;;;;;10.90;99.90;;;;;;4986216;28;19922;-73
2022/10/04 03:49:32;;;;;;;;;;;10.90;99.90;;;;;;4984899;28;19992;-74
2022/10/04 03:51:58;;;;;;;;;;;10.80;99.90;;;;;;4986114;28;19922;-74
2022/10/04 03:54:26;;;;;;;;;;;10.80;99.90;;;;;;4984418;28;19926;-74
2022/10/04 03:56:53;;;;;;;;;;;10.90;99.90;;;;;;4985218;28;19930;-74
2022/10/04 03:59:19;;;;;;;;;;;10.90;99.90;;;;;;4984468;28;20379;-74
2022/10/04 04:01:47;;;;;;;;;;;10.90;99.90;;;;;;4985111;28;19971;-74
2022/10/04 04:04:30;;;;;;;;;;;10.80;99.90;;;;;;4983531;28;19953;-74
2022/10/04 04:06:55;;;;;;;;;;;10.80;99.90;;;;;;4987468;28;19925;-74
2022/10/04 04:09:24;;;;;;;;;;;10.80;99.90;;;;;;4988236;28;19933;-74
2022/10/04 04:11:50;;;;;;;;;;;10.70;99.90;;;;;;4989406;28;20623;-74
2022/10/04 04:14:21;;;;;;;;;;;10.70;99.90;;;;;;4989258;28;19922;-74
2022/10/04 04:16:46;;;;;;;;;;;10.70;99.90;;;;;;4971269;28;20442;-74
2022/10/04 04:19:14;;;;;;;;;;;10.70;99.90;;;;;;4988605;28;19926;-74
2022/10/04 04:21:40;;;;;;;;;;;10.70;99.90;;;;;;4988958;28;19933;-74
2022/10/04 04:24:12;;;;;;;;;;;10.70;99.90;;;;;;5002798;28;19926;-74
2022/10/04 04:26:39;;;;;;;;;;;10.70;99.90;;;;;;4974354;28;19926;-73
2022/10/04 04:29:06;;;;;;;;;;;10.70;99.90;;;;;;4988172;28;19926;-74
2022/10/04 04:31:39;;;;;;;;;;;10.70;99.90;;;;;;4987467;28;19936;-74
2022/10/04 04:34:15;;;;;;;;;;;10.70;99.90;;;;;;4988281;28;19938;-74
2022/10/04 04:36:40;;;;;;;;;;;10.70;99.90;;;;;;4988605;28;19926;-74
2022/10/04 04:41:51;;;;;;;;;;;10.70;99.90;;;;;;4985650;28;19972;-74
2022/10/04 04:44:17;;;;;;;;;;;10.70;99.90;;;;;;4972322;28;20020;-73
2022/10/04 04:46:46;;;;;;;;;;;10.70;99.90;;;;;;4987917;28;19925;-74
2022/10/04 04:49:14;;;;;;;;;;;10.70;99.90;;;;;;4986658;28;20000;-74
2022/10/04 04:51:40;;;;;;;;;;;10.70;99.90;;;;;;4988489;28;20449;-74
2022/10/04 04:54:06;;;;;;;;;;;10.70;99.90;;;;;;4988679;28;20292;-74
2022/10/04 04:56:32;;;;;;;;;;;10.70;99.90;;;;;;4981056;28;19937;-74
2022/10/04 04:59:00;;;;;;;;;;;10.60;99.90;;;;;;4982912;28;19933;-74
2022/10/04 05:01:40;;;;;;;;;;;10.60;99.90;;;;;;4970001;28;19926;-75
2022/10/04 05:04:11;;;;;;;;;;;10.60;99.90;;;;;;4979167;28;20287;-76
2022/10/04 05:06:40;;;;;;;;;;;10.60;99.90;;;;;;4979850;28;19926;-75
2022/10/04 05:09:20;;;;;;;;;;;10.50;99.90;;;;;;4982733;28;19929;-75
2022/10/04 05:11:47;;;;;;;;;;;10.50;99.90;;;;;;4983128;28;19980;-75
2022/10/04 05:14:14;;;;;;;;;;;10.50;99.90;;;;;;4972724;28;20617;-75
2022/10/04 05:16:48;;;;;;;;;;;10.50;99.90;;;;;;4979766;28;20035;-76
2022/10/04 05:19:23;;;;;;;;;;;10.50;99.90;;;;;;4982600;28;20300;-75
2022/10/04 05:21:51;;;;;;;;;;;10.50;99.90;;;;;;4967961;28;19949;-75
2022/10/04 05:24:22;;;;;;;;;;;10.60;99.90;;;;;;4980618;28;19934;-77
2022/10/04 05:26:49;;;;;;;;;;;10.60;99.90;;;;;;4982778;28;19932;-75
2022/10/04 05:29:17;;;;;;;;;;;10.60;99.90;;;;;;4987547;28;19933;-75
2022/10/04 05:32:02;;;;;;;;;;;10.60;99.90;;;;;;4985854;28;19925;-74
2022/10/04 05:34:36;;;;;;;;;;;10.60;99.90;;;;;;4994999;28;19926;-74
2022/10/04 05:37:13;;;;;;;;;;;10.60;99.90;;;;;;4979041;28;19979;-74
2022/10/04 05:39:49;;;;;;;;;;;10.60;99.90;;;;;;5001928;28;19933;-75
2022/10/04 05:42:19;;;;;;;;;;;10.60;99.90;;;;;;4986566;28;20366;-74
2022/10/04 05:44:50;;;;;;;;;;;10.60;99.90;;;;;;4979938;28;19934;-77
2022/10/04 05:47:21;;;;;;;;;;;10.70;99.90;;;;;;4978328;28;19926;-77
2022/10/04 05:49:47;;;;;;;;;;;10.60;99.90;;;;;;4985745;28;19980;-76
2022/10/04 05:52:14;;;;;;;;;;;10.70;99.90;;;;;;4985789;28;20387;-76
2022/10/04 05:54:40;;;;;;;;;;;10.70;99.90;;;;;;4986503;28;19929;-76
2022/10/04 05:57:09;;;;;;;;;;;10.70;99.90;;;;;;4985829;28;19926;-77
2022/10/04 05:59:49;;;;;;;;;;;10.70;99.90;;;;;;5002119;28;19932;-79
2022/10/04 06:02:18;;;;;;;;;;;10.70;99.90;;;;;;4985426;28;19997;-78
2022/10/04 06:05:08;;;;;;;;;;;10.60;99.90;;;;;;4983127;28;19953;-78
2022/10/04 06:07:36;;;;;;;;;;;10.60;99.90;;;;;;4979319;28;19933;-79
2022/10/04 06:10:10;;;;;;;;;;;10.60;99.90;;;;;;4986567;28;19925;-76
2022/10/04 06:12:54;;;;;;;;;;;10.60;99.90;;;;;;4984842;28;19933;-74
2022/10/04 06:15:30;;;;;;;;;;;10.60;99.90;;;;;;4984621;28;20423;-73
2022/10/04 06:18:02;;;;;;;;;;;10.60;99.90;;;;;;4985130;28;19985;-73
2022/10/04 06:20:45;;;;;;;;;;;10.60;99.90;;;;;;4983175;28;19926;-74
2022/10/04 06:23:17;;;;;;;;;;;10.60;99.90;;;;;;4974376;28;20127;-74
2022/10/04 06:25:43;;;;;;;;;;;10.60;99.90;;;;;;4972442;28;19926;-74
2022/10/04 06:28:17;;;;;;;;;;;10.70;99.90;;;;;;4980010;28;20053;-76
2022/10/04 06:30:52;;;;;;;;;;;10.70;99.90;;;;;;4985094;28;19972;-74
2022/10/04 06:33:18;;;;;;;;;;;10.70;99.90;;;;;;4999861;28;20510;-75
2022/10/04 06:35:52;;;;;;;;;;;10.70;99.90;;;;;;4984521;28;19926;-73
2022/10/04 06:38:23;;;;;;;;;;;10.70;99.90;;;;;;4983471;28;20559;-74
2022/10/04 06:40:56;;;;;;;;;;;10.70;99.90;;;;;;4983875;28;20129;-74
2022/10/04 06:43:26;;;;;;;;;;;10.70;99.90;;;;;;5000107;28;19957;-74
2022/10/04 06:46:06;;;;;;;;;;;10.70;99.90;;;;;;4984720;28;19932;-75
2022/10/04 06:48:43;;;;;;;;;;;10.70;99.90;;;;;;4983602;28;19929;-74
2022/10/04 06:51:08;;;;;;;;;;;10.70;99.90;;;;;;4983473;28;19933;-75
2022/10/04 06:53:43;;;;;;;;;;;10.80;99.90;;;;;;4984544;28;20311;-75
2022/10/04 06:56:17;;;;;;;;;;;10.80;99.90;;;;;;4983426;28;19932;-75
2022/10/04 06:58:58;;;;;;;;;;;10.80;99.90;;;;;;4984442;28;19926;-74
2022/10/04 07:01:33;;;;;;;;;;;10.90;99.90;;;;;;4984642;28;19933;-74
2022/10/04 07:04:11;;;;;;;;;;;10.90;99.90;;;;;;4984124;28;20441;-75
2022/10/04 07:06:41;;;;;;;;;;;11.00;99.90;;;;;;4983097;28;19929;-74
2022/10/04 07:09:13;;;;;;;;;;;11.10;99.90;;;;;;4984948;28;19933;-75
2022/10/04 07:12:00;;;;;;;;;;;11.00;99.90;;;;;;4984349;28;19929;-74
2022/10/04 07:14:36;;;;;;;;;;;11.10;99.90;;;;;;4983834;28;19921;-74
2022/10/04 07:17:04;;;;;;;;;;;11.10;99.90;;;;;;4982257;28;19976;-74
2022/10/04 07:19:32;;;;;;;;;;;11.10;99.90;;;;;;4984134;28;19933;-77
2022/10/04 07:22:14;;;;;;;;;;;11.10;99.90;;;;;;4983232;28;19925;-74
2022/10/04 07:24:58;;;;;;;;;;;11.10;99.90;;;;;;4978021;28;19926;-75
2022/10/04 07:27:43;;;;;;;;;;;11.10;99.90;;;;;;4965039;28;20371;-74
2022/10/04 07:30:14;;;;;;;;;;;11.10;99.90;;;;;;4963585;28;19976;-74
2022/10/04 07:32:44;;;;;;;;;;;11.10;99.90;;;;;;4963743;28;19965;-74
2022/10/04 07:35:11;;;;;;;;;;;11.10;99.90;;;;;;4963794;28;19927;-74
2022/10/04 07:37:56;;;;;;;;;;;11.10;99.90;;;;;;4964490;28;19981;-75
2022/10/04 07:40:45;;;;;;;;;;;11.10;99.90;;;;;;4965425;28;19981;-74
2022/10/04 07:43:22;;;;;;;;;;;11.10;99.90;;;;;;4965659;28;19933;-74
2022/10/04 07:45:48;;;;;;;;;;;11.10;99.90;;;;;;4965442;28;19961;-75
2022/10/04 07:48:21;;;;;;;;;;;11.20;99.90;;;;;;4965022;28;20427;-75
2022/10/04 07:50:53;;;;;;;;;;;11.20;99.90;;;;;;4964376;28;19922;-74
2022/10/04 07:53:30;;;;;;;;;;;11.20;99.90;;;;;;4964760;28;19997;-75
2022/10/04 07:56:06;;;;;;;;;;;11.30;99.90;;;;;;4965373;28;19945;-74
2022/10/04 07:58:44;;;;;;;;;;;11.30;99.90;;;;;;4964300;28;19926;-73
2022/10/04 08:01:18;;;;;;;;;;;11.40;99.90;;;;;;4964531;28;20082;-74
2022/10/04 08:03:46;;;;;;;;;;;11.40;99.90;;;;;;4963579;28;19931;-74
2022/10/04 08:06:17;;;;;;;;;;;11.50;99.90;;;;;;4964259;28;20495;-74
2022/10/04 08:08:43;;;;;;;;;;;11.50;99.90;;;;;;4964288;28;19980;-74
2022/10/04 08:11:09;;;;;;;;;;;11.60;99.90;;;;;;4963041;28;20388;-75
2022/10/04 08:13:44;;;;;;;;;;;11.70;99.90;;;;;;4964609;28;20364;-73
2022/10/04 08:16:29;;;;;;;;;;;11.70;99.90;;;;;;4964277;28;20308;-75
2022/10/04 08:18:55;;;;;;;;;;;11.80;99.90;;;;;;4963544;28;19953;-74
2022/10/04 08:21:25;;;;;;;;;;;11.80;99.90;;;;;;4963327;28;19930;-74
2022/10/04 08:23:51;;;;;;;;;;;11.90;99.90;;;;;;4963040;28;19980;-75
2022/10/04 08:26:23;;;;;;;;;;;12.00;99.90;;;;;;4982225;28;19969;-74
2022/10/04 08:32:18;;;;;;;;;;;12.10;99.90;;;;;;4981869;28;19972;-75
2022/10/04 08:34:44;;;;;;;;;;;12.20;99.90;;;;;;4982331;28;19945;-74
2022/10/04 08:37:27;;;;;;;;;;;12.30;99.90;;;;;;4983282;28;20283;-73
2022/10/04 08:39:53;;;;;;;;;;;12.30;99.90;;;;;;4984121;28;19925;-74
2022/10/04 08:42:19;;;;;;;;;;;12.30;99.90;;;;;;4983868;28;19925;-74
2022/10/04 08:44:50;;;;;;;;;;;12.40;99.90;;;;;;4983540;28;19926;-75
2022/10/04 08:47:32;;;;;;;;;;;12.50;99.90;;;;;;4981821;28;20505;-74
2022/10/04 08:50:11;;;;;;;;;;;12.50;99.90;;;;;;4984611;28;19926;-75
2022/10/04 08:52:52;;;;;;;;;;;12.60;99.90;;;;;;4982817;28;19984;-75
2022/10/04 08:55:27;;;;;;;;;;;12.70;99.90;;;;;;4987834;28;19926;-74
2022/10/04 08:57:59;;;;;;;;;;;12.70;99.90;;;;;;4986876;28;19933;-74
2022/10/04 09:00:44;;;;;;;;;;;12.70;99.90;;;;;;4986195;28;19926;-74
2022/10/04 09:03:28;;;;;;;;;;;12.80;99.90;;;;;;4986157;28;19925;-75
2022/10/04 09:05:59;;;;;;;;;;;12.80;99.90;;;;;;4986957;28;19989;-76
2022/10/04 09:08:31;;;;;;;;;;;12.80;99.90;;;;;;4985865;28;20303;-74
2022/10/04 09:11:05;;;;;;;;;;;12.90;99.90;;;;;;4987279;28;20020;-74
2022/10/04 09:13:39;;;;;;;;;;;12.90;99.90;;;;;;4986780;28;20307;-75
2022/10/04 09:16:16;;;;;;;;;;;12.90;99.90;;;;;;4985948;28;20016;-74
2022/10/04 09:18:47;;;;;;;;;;;13.00;99.90;;;;;;4987420;28;19957;-75
2022/10/04 09:21:16;;;;;;;;;;;13.00;99.90;;;;;;4987297;28;20441;-76
2022/10/04 09:23:44;;;;;;;;;;;13.00;99.90;;;;;;4981022;28;19930;-77
2022/10/04 09:26:28;;;;;;;;;;;13.10;99.90;;;;;;4985252;28;20427;-76
2022/10/04 09:28:56;;;;;;;;;;;13.10;99.90;;;;;;4985386;28;19959;-75
2022/10/04 09:31:26;;;;;;;;;;;13.20;99.90;;;;;;4976545;28;20211;-75
2022/10/04 09:34:01;;;;;;;;;;;13.30;99.90;;;;;;4987828;28;20393;-75
2022/10/04 09:36:26;;;;;;;;;;;13.30;99.90;;;;;;4986759;28;19925;-75
2022/10/04 09:39:11;;;;;;;;;;;13.40;99.90;;;;;;4987431;28;19926;-75
2022/10/04 09:41:36;;;;;;;;;;;13.40;99.90;;;;;;4983746;28;20336;-76
2022/10/04 09:44:21;;;;;;;;;;;13.40;99.90;;;;;;4986357;28;19968;-75
2022/10/04 09:46:58;;;;;;;;;;;13.50;99.90;;;;;;4985329;28;19969;-76
2022/10/04 09:49:26;;;;;;;;;;;13.60;99.90;;;;;;4986336;28;19977;-75
2022/10/04 09:52:13;;;;;;;;;;;13.60;99.90;;;;;;4985800;28;19925;-75
2022/10/04 09:54:48;;;;;;;;;;;13.60;99.90;;;;;;4985497;28;19926;-75
2022/10/04 09:57:21;;;;;;;;;;;13.60;99.90;;;;;;4987380;28;19933;-76
2022/10/04 09:59:57;;;;;;;;;;;13.50;99.90;;;;;;4986265;28;20312;-75
2022/10/04 10:02:39;;;;;;;;;;;13.60;99.90;;;;;;4986274;28;19926;-76
2022/10/04 10:05:07;;;;;;;;;;;13.60;99.90;;;;;;4985724;28;19926;-75
2022/10/04 10:07:35;;;;;;;;;;;13.50;99.90;;;;;;4987111;28;19941;-75
2022/10/04 10:16:28;;;;;;;;;;;13.60;99.90;;;;;;4985864;28;20419;-75
2022/10/04 10:19:05;;;;;;;;;;;13.60;99.90;;;;;;4986475;28;19951;-76
2022/10/04 10:21:40;;;;;;;;;;;13.60;99.90;;;;;;4985460;28;19926;-76
2022/10/04 10:24:17;;;;;;;;;;;13.70;99.90;;;;;;4985231;28;19956;-75
2022/10/04 10:26:52;;;;;;;;;;;13.60;99.90;;;;;;4986556;28;19926;-75
2022/10/04 10:29:44;;;;;;;;;;;13.70;99.90;;;;;;4984918;28;20008;-75
2022/10/04 10:32:28;;;;;;;;;;;13.70;99.90;;;;;;4969806;28;19926;-75
2022/10/04 10:35:07;;;;;;;;;;;13.80;99.90;;;;;;4977162;28;19965;-78
2022/10/04 10:37:51;;;;;;;;;;;13.80;99.90;;;;;;4975931;28;19934;-78
2022/10/04 10:40:39;;;;;;;;;;;13.80;99.90;;;;;;4985768;28;19926;-74
2022/10/04 10:43:05;;;;;;;;;;;13.90;99.90;;;;;;4984307;28;19991;-76
2022/10/04 10:45:49;;;;;;;;;;;14.10;99.90;;;;;;4986261;28;20396;-77
2022/10/04 10:48:27;;;;;;;;;;;14.10;99.90;;;;;;4983746;28;19932;-75
2022/10/04 10:51:11;;;;;;;;;;;14.20;99.90;;;;;;4984474;28;19925;-75
2022/10/04 10:53:54;;;;;;;;;;;14.20;99.90;;;;;;4976106;28;19958;-75
2022/10/04 10:56:30;;;;;;;;;;;14.10;99.90;;;;;;4966839;28;20657;-74
2022/10/04 10:58:56;;;;;;;;;;;14.10;99.90;;;;;;4968791;28;20442;-75
2022/10/04 11:01:40;;;;;;;;;;;14.10;99.90;;;;;;4984862;28;19966;-75
2022/10/04 11:04:06;;;;;;;;;;;14.10;99.90;;;;;;4984388;28;19932;-74
2022/10/04 11:06:38;;;;;;;;;;;14.20;99.90;;;;;;4985589;28;19926;-76
2022/10/04 11:09:06;;;;;;;;;;;14.20;99.90;;;;;;4971548;28;19933;-75
2022/10/04 11:11:50;;;;;;;;;;;14.30;99.90;;;;;;4985254;28;20296;-76
2022/10/04 11:14:35;;;;;;;;;;;14.30;99.90;;;;;;4985948;28;19933;-75
2022/10/04 11:17:19;;;;;;;;;;;14.30;99.90;;;;;;4984163;28;20400;-75
2022/10/04 11:19:48;;;;;;;;;;;14.30;99.90;;;;;;4985368;28;20281;-76
2022/10/04 11:22:33;;;;;;;;;;;14.30;99.90;;;;;;4984808;28;20284;-74
2022/10/04 11:25:07;;;;;;;;;;;14.30;99.90;;;;;;4986021;28;19926;-76
2022/10/04 11:27:33;;;;;;;;;;;14.40;99.90;;;;;;4985053;28;20016;-77
2022/10/04 11:30:16;;;;;;;;;;;14.50;99.90;;;;;;4986352;28;20049;-75
2022/10/04 11:33:01;;;;;;;;;;;14.50;99.90;;;;;;4983397;28;19984;-76
2022/10/04 11:35:56;;;;;;;;;;;14.50;99.90;;;;;;4965941;28;19954;-75
2022/10/04 11:38:30;;;;;;;;;;;14.50;99.90;;;;;;4957385;28;19927;-75
2022/10/04 11:41:09;;;;;;;;;;;14.60;99.90;;;;;;4979929;28;20019;-76
2022/10/04 11:43:45;;;;;;;;;;;14.60;99.90;;;;;;4984352;28;19972;-75
2022/10/04 11:46:34;;;;;;;;;;;14.60;99.90;;;;;;4984262;28;19926;-76
2022/10/04 11:49:18;;;;;;;;;;;14.60;99.90;;;;;;4983448;28;19933;-76
2022/10/04 11:51:46;;;;;;;;;;;14.60;99.90;;;;;;4983832;28;19979;-75
2022/10/04 11:54:26;;;;;;;;;;;14.60;99.90;;;;;;4983381;28;20407;-76
2022/10/04 11:57:18;;;;;;;;;;;14.70;99.90;;;;;;4983293;28;19930;-77
2022/10/04 11:59:46;;;;;;;;;;;14.70;99.90;;;;;;4983832;28;19961;-74
2022/10/04 12:02:32;;;;;;;;;;;14.70;99.90;;;;;;4975746;28;20371;-74
2022/10/04 12:05:01;;;;;;;;;;;14.70;99.90;;;;;;4950721;28;19925;-74
2022/10/04 12:07:26;;;;;;;;;;;14.70;99.90;;;;;;4984663;28;19929;-75
2022/10/04 12:09:58;;;;;;;;;;;14.70;99.90;;;;;;4983609;28;19926;-75
2022/10/04 12:12:35;;;;;;;;;;;14.70;99.90;;;;;;4983898;28;19930;-74
2022/10/04 12:15:03;;;;;;;;;;;14.80;99.90;;;;;;4985166;28;19936;-75
2022/10/04 12:17:47;;;;;;;;;;;14.80;99.90;;;;;;4968621;28;19933;-76
2022/10/04 12:20:31;;;;;;;;;;;14.90;99.90;;;;;;4982345;28;20367;-77
2022/10/04 12:23:03;;;;;;;;;;;14.90;99.90;;;;;;4984320;28;19926;-75
2022/10/04 12:25:46;;;;;;;;;;;14.90;99.90;;;;;;4983689;28;19944;-76
2022/10/04 12:28:19;;;;;;;;;;;15.00;99.90;;;;;;5018232;28;20552;-75
2022/10/04 12:30:45;;;;;;;;;;;15.10;99.90;;;;;;4984087;28;19922;-75
2022/10/04 12:33:21;;;;;;;;;;;15.00;99.90;;;;;;4985950;28;20043;-75
2022/10/04 12:35:52;;;;;;;;;;;15.10;99.90;;;;;;4985932;28;19922;-75
2022/10/04 12:38:30;;;;;;;;;;;15.10;99.90;;;;;;4986084;28;19977;-75
2022/10/04 12:41:16;;;;;;;;;;;15.10;99.90;;;;;;4987477;28;19952;-75
2022/10/04 12:44:06;;;;;;;;;;;15.10;99.90;;;;;;4979199;28;19948;-75
2022/10/04 12:46:55;;;;;;;;;;;15.10;99.90;;;;;;4986227;28;19925;-76
2022/10/04 12:49:46;;;;;;;;;;;15.20;99.90;;;;;;4985382;28;19925;-75
2022/10/04 12:52:14;;;;;;;;;;;15.20;99.90;;;;;;4987004;28;19965;-76
2022/10/04 12:54:46;;;;;;;;;;;15.20;99.90;;;;;;4985719;28;19932;-76
2022/10/04 12:57:26;;;;;;;;;;;15.30;99.90;;;;;;4985182;28;19930;-75
2022/10/04 12:59:58;;;;;;;;;;;15.30;99.90;;;;;;4985643;28;20021;-76
2022/10/04 13:02:27;;;;;;;;;;;15.30;99.90;;;;;;4985761;28;20364;-76
2022/10/04 13:05:01;;;;;;;;;;;15.30;99.90;;;;;;4986703;28;19981;-76
2022/10/04 13:07:39;;;;;;;;;;;15.30;99.90;;;;;;5002081;28;20142;-75
2022/10/04 13:10:08;;;;;;;;;;;15.30;99.90;;;;;;4984995;28;19973;-75
2022/10/04 13:12:52;;;;;;;;;;;15.30;99.90;;;;;;4986351;28;19932;-76
2022/10/04 13:15:31;;;;;;;;;;;15.30;99.90;;;;;;4985361;28;20300;-75
2022/10/04 13:18:10;;;;;;;;;;;15.30;99.90;;;;;;4985822;28;19925;-75
2022/10/04 13:20:54;;;;;;;;;;;15.30;99.90;;;;;;4985905;28;19926;-74
2022/10/04 13:23:19;;;;;;;;;;;15.30;99.90;;;;;;4985166;28;20004;-76
2022/10/04 13:25:51;;;;;;;;;;;15.30;99.90;;;;;;4971012;28;19926;-75
2022/10/04 13:28:30;;;;;;;;;;;15.30;99.90;;;;;;4966757;28;20132;-74
2022/10/04 13:31:08;;;;;;;;;;;15.30;99.90;;;;;;4966144;28;19933;-76
2022/10/04 13:33:36;;;;;;;;;;;15.40;99.90;;;;;;4965181;28;19926;-76
2022/10/04 13:36:02;;;;;;;;;;;15.40;99.90;;;;;;4965616;28;19926;-74
2022/10/04 13:38:27;;;;;;;;;;;15.40;99.90;;;;;;4964737;28;20274;-74
2022/10/04 13:40:54;;;;;;;;;;;15.40;99.90;;;;;;4965276;28;19957;-76
2022/10/04 13:43:27;;;;;;;;;;;15.40;99.90;;;;;;4966457;28;19988;-76
2022/10/04 13:46:04;;;;;;;;;;;15.40;99.90;;;;;;4965535;28;20076;-75
2022/10/04 13:48:41;;;;;;;;;;;15.40;99.90;;;;;;4966555;28;19992;-78
2022/10/04 13:51:30;;;;;;;;;;;15.50;99.90;;;;;;4971896;28;20647;-76
2022/10/04 13:57:13;;;;;;;;;;;15.50;99.90;;;;;;4967325;28;19926;-73
2022/10/04 13:59:41;;;;;;;;;;;15.50;99.90;;;;;;4980850;28;19937;-74
2022/10/04 14:02:16;;;;;;;;;;;15.50;99.90;;;;;;4974228;28;19928;-74
2022/10/04 14:05:01;;;;;;;;;;;15.40;99.90;;;;;;4966448;28;19980;-76
2022/10/04 14:07:29;;;;;;;;;;;15.40;99.90;;;;;;4971170;28;20682;-75
2022/10/04 14:10:13;;;;;;;;;;;15.50;99.90;;;;;;4971128;28;19993;-77
2022/10/04 14:12:45;;;;;;;;;;;15.50;99.90;;;;;;4980180;28;19926;-75
2022/10/04 14:15:28;;;;;;;;;;;15.50;99.90;;;;;;4966037;28;19926;-75
2022/10/04 14:18:03;;;;;;;;;;;15.50;99.90;;;;;;4973449;28;20015;-74
2022/10/04 14:20:44;;;;;;;;;;;15.50;99.90;;;;;;4983135;28;20410;-74
2022/10/04 14:23:35;;;;;;;;;;;15.50;99.90;;;;;;4977791;28;19980;-74
2022/10/04 14:26:06;;;;;;;;;;;15.50;99.90;;;;;;4981924;28;19930;-76
2022/10/04 14:28:43;;;;;;;;;;;15.50;99.90;;;;;;4971828;28;20335;-75
2022/10/04 14:31:20;;;;;;;;;;;15.50;99.90;;;;;;4964906;28;19981;-73
2022/10/04 14:33:57;;;;;;;;;;;15.50;99.90;;;;;;4974012;28;20155;-74
2022/10/04 14:36:55;;;;;;;;;;;15.60;99.90;;;;;;4982240;28;19982;-75
2022/10/04 14:39:39;;;;;;;;;;;15.60;99.90;;;;;;4951590;28;20388;-74
2022/10/04 14:42:24;;;;;;;;;;;15.60;99.90;;;;;;4980378;28;19926;-73
2022/10/04 14:44:58;;;;;;;;;;;15.60;99.90;;;;;;4980493;28;20224;-73
2022/10/04 14:47:41;;;;;;;;;;;15.60;99.90;;;;;;4982467;28;19926;-73
2022/10/04 14:50:26;;;;;;;;;;;15.60;99.90;;;;;;5001205;28;20444;-74
2022/10/04 14:52:55;;;;;;;;;;;15.60;99.90;;;;;;4986208;28;20304;-75
2022/10/04 14:55:25;;;;;;;;;;;15.60;99.90;;;;;;4985796;28;19925;-74
2022/10/04 14:58:00;;;;;;;;;;;15.60;99.90;;;;;;4984652;28;20346;-75
2022/10/04 15:00:32;;;;;;;;;;;15.60;99.90;;;;;;4984112;28;19952;-73
2022/10/04 15:03:17;;;;;;;;;;;15.60;99.90;;;;;;4985568;28;20346;-74
2022/10/04 15:05:56;;;;;;;;;;;15.60;99.90;;;;;;4983633;28;19981;-74
2022/10/04 15:08:24;;;;;;;;;;;15.60;99.90;;;;;;4985286;28;19921;-75
2022/10/04 15:10:57;;;;;;;;;;;15.60;99.90;;;;;;4981774;28;20525;-74